Time;durP1;ratioP1;P1;durP2;ratioP2;P2;SDS_P1;SDS_P2;PMS_P1;PMS_P2;Temp;Humidity;BMP_temperature;BMP_pressure;BME280_temperature;BME280_humidity;BME280_pressure;Samples;Min_cycle;Max_cycle;Signal;HPM_P1;HPM_P2
2021/04/26 00:02:00;;;;;;;7.10;2.97;;;;;;;;;;4962905;28;20027;-82
2021/04/26 00:04:47;;;;;;;13.50;2.97;;;;;;;;;;4966807;28;20022;-81
2021/04/26 00:07:32;;;;;;;8.07;3.30;;;;;;;;;;4966865;28;20104;-81
2021/04/26 00:10:17;;;;;;;5.15;2.55;;;;;;;;;;4962390;28;20117;-81
2021/04/26 00:13:03;;;;;;;5.63;2.63;;;;;;;;;;4963177;28;20022;-81
2021/04/26 00:15:48;;;;;;;11.73;3.40;;;;;;;;;;4963087;28;20090;-81
2021/04/26 00:18:33;;;;;;;17.08;3.42;;;;;;;;;;4967836;28;20042;-81
2021/04/26 00:21:19;;;;;;;7.15;2.60;;;;;;;;;;4966575;28;20050;-81
2021/04/26 00:24:05;;;;;;;8.20;2.60;;;;;;;;;;4961469;28;20497;-81
2021/04/26 00:26:50;;;;;;;9.98;3.15;;;;;;;;;;4953149;28;20037;-81
2021/04/26 00:29:36;;;;;;;6.43;2.45;;;;;;;;;;4965997;28;20022;-81
2021/04/26 00:32:21;;;;;;;8.05;2.83;;;;;;;;;;4965696;28;20536;-81
2021/04/26 00:35:07;;;;;;;5.43;2.30;;;;;;;;;;4965919;28;20141;-81
2021/04/26 00:37:53;;;;;;;5.97;2.38;;;;;;;;;;4961533;28;20180;-81
2021/04/26 00:40:38;;;;;;;6.03;2.75;;;;;;;;;;4965395;28;20488;-82
2021/04/26 00:43:24;;;;;;;8.00;2.85;;;;;;;;;;4972280;28;20709;-82
2021/04/26 00:46:11;;;;;;;5.63;2.55;;;;;;;;;;4967479;28;20018;-81
2021/04/26 00:48:56;;;;;;;9.02;2.78;;;;;;;;;;4965043;28;20473;-81
2021/04/26 00:51:41;;;;;;;6.32;2.30;;;;;;;;;;4965959;28;20030;-81
2021/04/26 00:54:27;;;;;;;4.80;2.80;;;;;;;;;;4950130;28;20034;-81
2021/04/26 00:57:12;;;;;;;8.27;2.58;;;;;;;;;;4947163;28;20559;-82
2021/04/26 00:59:58;;;;;;;10.38;2.97;;;;;;;;;;4967767;28;20018;-81
2021/04/26 01:02:43;;;;;;;5.45;2.85;;;;;;;;;;4968347;28;20065;-81
2021/04/26 01:05:29;;;;;;;5.82;3.10;;;;;;;;;;4961210;28;20026;-81
2021/04/26 01:08:14;;;;;;;8.57;2.85;;;;;;;;;;4964484;28;20026;-81
2021/04/26 01:11:00;;;;;;;6.43;2.78;;;;;;;;;;4966429;28;20030;-81
2021/04/26 01:13:49;;;;;;;7.82;3.20;;;;;;;;;;4964786;28;20038;-81
2021/04/26 01:16:39;;;;;;;8.00;3.42;;;;;;;;;;4963999;28;20033;-82
2021/04/26 01:19:30;;;;;;;9.07;3.10;;;;;;;;;;4960439;28;20323;-81
2021/04/26 01:22:31;;;;;;;7.63;3.20;;;;;;;;;;4963579;28;20821;-81
2021/04/26 01:25:18;;;;;;;8.27;2.95;;;;;;;;;;4959890;28;20426;-81
2021/04/26 01:28:11;;;;;;;8.07;3.60;;;;;;;;;;4960220;28;20211;-81
2021/04/26 01:31:10;;;;;;;9.07;3.90;;;;;;;;;;4957131;28;20484;-81
2021/04/26 01:33:57;;;;;;;7.43;4.23;;;;;;;;;;4960495;28;20042;-81
2021/04/26 01:36:45;;;;;;;6.15;3.10;;;;;;;;;;4964914;28;20254;-80
2021/04/26 01:39:31;;;;;;;9.43;3.47;;;;;;;;;;4964932;28;20039;-82
2021/04/26 01:42:17;;;;;;;17.02;4.53;;;;;;;;;;4958473;28;20544;-83
2021/04/26 01:45:04;;;;;;;9.30;3.80;;;;;;;;;;4953963;28;20054;-82
2021/04/26 01:47:52;;;;;;;10.23;4.20;;;;;;;;;;4963894;28;20026;-81
2021/04/26 01:50:37;;;;;;;9.23;3.80;;;;;;;;;;4963170;28;20050;-81
2021/04/26 01:53:23;;;;;;;7.32;3.72;;;;;;;;;;4965839;28;20110;-81
2021/04/26 01:56:10;;;;;;;7.28;3.28;;;;;;;;;;4962153;28;20034;-81
2021/04/26 01:58:56;;;;;;;12.02;4.65;;;;;;;;;;4966090;28;20089;-81
2021/04/26 02:01:41;;;;;;;9.95;4.00;;;;;;;;;;4960256;28;20031;-81
2021/04/26 02:04:28;;;;;;;7.65;3.53;;;;;;;;;;4961726;28;20499;-82
2021/04/26 02:07:13;;;;;;;9.38;3.40;;;;;;;;;;4960655;28;20026;-81
2021/04/26 02:09:59;;;;;;;11.80;4.63;;;;;;;;;;4966644;28;20015;-81
2021/04/26 02:12:45;;;;;;;6.75;3.33;;;;;;;;;;4962191;28;20482;-81
2021/04/26 02:15:30;;;;;;;9.88;3.50;;;;;;;;;;4960779;28;20050;-81
2021/04/26 02:18:15;;;;;;;9.10;3.53;;;;;;;;;;4957541;28;20089;-81
2021/04/26 02:21:01;;;;;;;9.38;3.30;;;;;;;;;;4960321;28;20069;-81
2021/04/26 02:23:46;;;;;;;7.70;3.30;;;;;;;;;;4958338;28;20038;-81
2021/04/26 02:26:32;;;;;;;9.57;3.83;;;;;;;;;;4965363;28;20045;-82
2021/04/26 02:29:17;;;;;;;7.82;3.60;;;;;;;;;;4960123;28;20031;-81
2021/04/26 02:32:06;;;;;;;6.38;3.30;;;;;;;;;;4951542;28;20037;-82
2021/04/26 02:34:53;;;;;;;8.18;3.33;;;;;;;;;;4959887;28;20027;-81
2021/04/26 02:37:49;;;;;;;6.60;3.63;;;;;;;;;;4961714;28;20378;-81
2021/04/26 02:40:43;;;;;;;9.43;3.40;;;;;;;;;;4964984;28;20054;-82
2021/04/26 02:43:30;;;;;;;7.38;3.78;;;;;;;;;;4959589;28;20106;-82
2021/04/26 02:46:16;;;;;;;5.72;3.00;;;;;;;;;;4959496;28;20478;-82
2021/04/26 02:49:03;;;;;;;10.20;4.15;;;;;;;;;;4961252;28;20023;-81
2021/04/26 02:51:49;;;;;;;8.27;3.58;;;;;;;;;;4961290;28;20596;-82
2021/04/26 02:54:34;;;;;;;5.55;3.33;;;;;;;;;;4960110;28;20114;-81
2021/04/26 02:57:20;;;;;;;7.35;3.78;;;;;;;;;;4964607;28;20113;-81
2021/04/26 03:00:06;;;;;;;7.72;3.65;;;;;;;;;;4956575;28;20026;-81
2021/04/26 03:02:52;;;;;;;12.60;4.47;;;;;;;;;;4962966;28;20030;-82
2021/04/26 03:05:37;;;;;;;12.77;4.90;;;;;;;;;;4956622;28;20030;-83
2021/04/26 03:08:23;;;;;;;7.45;3.55;;;;;;;;;;4954306;28;20031;-82
2021/04/26 03:11:10;;;;;;;8.27;4.03;;;;;;;;;;4962655;28;20027;-81
2021/04/26 03:13:55;;;;;;;8.25;3.60;;;;;;;;;;4960165;28;20055;-81
2021/04/26 03:16:41;;;;;;;12.00;4.13;;;;;;;;;;4965589;28;20030;-81
2021/04/26 03:19:26;;;;;;;7.57;3.95;;;;;;;;;;4959505;28;20148;-81
2021/04/26 03:22:12;;;;;;;9.43;3.80;;;;;;;;;;4972803;28;20106;-81
2021/04/26 03:24:57;;;;;;;7.40;3.75;;;;;;;;;;4956627;28;20018;-81
2021/04/26 03:27:43;;;;;;;10.55;4.80;;;;;;;;;;4964214;28;20127;-81
2021/04/26 03:30:28;;;;;;;9.93;3.97;;;;;;;;;;4961248;28;20421;-81
2021/04/26 03:33:14;;;;;;;10.07;4.22;;;;;;;;;;4959371;28;20119;-82
2021/04/26 03:35:59;;;;;;;12.25;4.18;;;;;;;;;;4953905;28;20027;-82
2021/04/26 03:38:45;;;;;;;10.43;5.18;;;;;;;;;;4959334;28;20038;-83
2021/04/26 03:41:30;;;;;;;13.60;4.35;;;;;;;;;;4957587;28;20037;-83
2021/04/26 03:44:16;;;;;;;9.73;4.53;;;;;;;;;;4959202;28;20469;-82
2021/04/26 03:47:03;;;;;;;12.85;4.30;;;;;;;;;;4958858;28;20031;-81
2021/04/26 03:49:48;;;;;;;10.07;4.78;;;;;;;;;;4956740;28;20290;-81
2021/04/26 03:52:33;;;;;;;10.43;4.80;;;;;;;;;;4962177;28;20108;-82
2021/04/26 03:55:20;;;;;;;9.85;4.50;;;;;;;;;;4958559;28;20106;-81
2021/04/26 03:58:07;;;;;;;11.27;5.18;;;;;;;;;;4962686;28;20113;-81
2021/04/26 04:00:52;;;;;;;12.10;4.55;;;;;;;;;;4957149;28;20083;-82
2021/04/26 04:03:38;;;;;;;9.40;4.40;;;;;;;;;;4960657;28;20019;-81
2021/04/26 04:06:23;;;;;;;10.38;5.05;;;;;;;;;;4959899;28;20462;-82
2021/04/26 04:09:09;;;;;;;11.30;5.10;;;;;;;;;;4962476;28;20041;-82
2021/04/26 04:11:54;;;;;;;12.98;4.88;;;;;;;;;;4959968;28;20054;-83
2021/04/26 04:14:39;;;;;;;14.00;5.30;;;;;;;;;;4951560;28;20057;-82
2021/04/26 04:17:24;;;;;;;10.23;5.40;;;;;;;;;;4958086;28;20026;-82
2021/04/26 04:20:11;;;;;;;11.50;5.00;;;;;;;;;;4959334;28;20394;-82
2021/04/26 04:22:56;;;;;;;11.73;4.75;;;;;;;;;;4956588;28;20041;-82
2021/04/26 04:25:41;;;;;;;11.85;5.70;;;;;;;;;;4964950;28;20053;-82
2021/04/26 04:28:28;;;;;;;11.50;4.65;;;;;;;;;;4959259;28;20500;-83
2021/04/26 04:31:13;;;;;;;13.38;5.47;;;;;;;;;;4961611;28;20034;-83
2021/04/26 04:33:58;;;;;;;11.07;5.15;;;;;;;;;;4966498;28;20046;-83
2021/04/26 04:36:44;;;;;;;12.63;5.18;;;;;;;;;;4948519;28;20027;-81
2021/04/26 04:39:29;;;;;;;9.45;4.93;;;;;;;;;;4959009;28;20081;-83
2021/04/26 04:42:14;;;;;;;10.43;4.70;;;;;;;;;;4957355;28;20405;-83
2021/04/26 04:44:59;;;;;;;10.20;5.70;;;;;;;;;;4961377;28;20023;-83
2021/04/26 04:47:45;;;;;;;10.43;5.47;;;;;;;;;;4966264;28;20034;-83
2021/04/26 04:50:30;;;;;;;11.48;5.18;;;;;;;;;;4964639;28;20425;-81
2021/04/26 04:53:15;;;;;;;9.77;4.50;;;;;;;;;;4960745;28;20031;-81
2021/04/26 04:56:01;;;;;;;11.95;5.20;;;;;;;;;;4965077;28;20106;-81
2021/04/26 04:58:46;;;;;;;15.25;5.40;;;;;;;;;;4961325;28;20656;-81
2021/04/26 05:01:31;;;;;;;12.75;4.75;;;;;;;;;;4963979;28;20027;-85
2021/04/26 05:04:16;;;;;;;10.98;4.85;;;;;;;;;;4958631;28;20019;-83
2021/04/26 05:07:02;;;;;;;10.88;4.68;;;;;;;;;;4965684;28;20065;-82
2021/04/26 05:09:47;;;;;;;8.48;4.72;;;;;;;;;;4964801;28;20030;-83
2021/04/26 05:12:33;;;;;;;8.98;3.88;;;;;;;;;;4965772;28;20041;-83
2021/04/26 05:15:18;;;;;;;11.50;4.93;;;;;;;;;;4955905;28;20042;-84
2021/04/26 05:18:03;;;;;;;13.52;5.00;;;;;;;;;;4963385;28;20030;-85
2021/04/26 05:20:49;;;;;;;13.18;4.95;;;;;;;;;;4948899;28;20410;-85
2021/04/26 05:23:34;;;;;;;11.00;4.57;;;;;;;;;;4962836;28;20026;-86
2021/04/26 05:26:19;;;;;;;11.60;5.00;;;;;;;;;;4943653;28;20022;-84
2021/04/26 05:29:04;;;;;;;10.73;4.70;;;;;;;;;;4951379;28;20042;-83
2021/04/26 05:31:50;;;;;;;11.75;5.05;;;;;;;;;;4957441;28;20034;-86
2021/04/26 05:34:35;;;;;;;8.88;4.68;;;;;;;;;;4955547;28;20508;-90
2021/04/26 05:37:20;;;;;;;13.73;5.32;;;;;;;;;;4946578;28;20228;-83
2021/04/26 05:40:06;;;;;;;8.82;4.45;;;;;;;;;;4962604;28;20027;-84
2021/04/26 05:42:51;;;;;;;10.38;4.50;;;;;;;;;;4965150;28;20029;-83
2021/04/26 05:45:36;;;;;;;10.38;4.93;;;;;;;;;;4960581;28;20392;-83
2021/04/26 05:48:22;;;;;;;8.90;4.22;;;;;;;;;;4963627;28;20030;-83
2021/04/26 05:51:07;;;;;;;13.90;4.97;;;;;;;;;;4957361;28;20525;-82
2021/04/26 05:53:52;;;;;;;12.65;5.28;;;;;;;;;;4963820;28;20073;-82
2021/04/26 05:56:38;;;;;;;9.10;4.82;;;;;;;;;;4960496;28;20023;-80
2021/04/26 05:59:23;;;;;;;10.98;5.10;;;;;;;;;;4962216;28;20030;-89
2021/04/26 06:02:08;;;;;;;12.63;4.57;;;;;;;;;;4958361;28;20030;-87
2021/04/26 06:04:53;;;;;;;14.32;5.07;;;;;;;;;;4948550;28;20114;-88
2021/04/26 06:07:39;;;;;;;10.50;5.18;;;;;;;;;;4959351;28;20114;-88
2021/04/26 06:10:24;;;;;;;8.00;4.72;;;;;;;;;;4959253;28;20062;-80
2021/04/26 06:13:10;;;;;;;15.07;4.65;;;;;;;;;;4961713;28;20507;-83
2021/04/26 06:15:55;;;;;;;13.52;5.38;;;;;;;;;;4966844;28;20030;-81
2021/04/26 06:18:40;;;;;;;13.73;5.18;;;;;;;;;;4967700;28;20033;-82
2021/04/26 06:21:25;;;;;;;7.57;4.30;;;;;;;;;;4959535;28;20033;-82
2021/04/26 06:24:11;;;;;;;21.60;12.98;;;;;;;;;;4969029;28;20022;-82
2021/04/26 06:27:02;;;;;;;13.82;5.97;;;;;;;;;;4967119;28;20528;-81
2021/04/26 06:29:47;;;;;;;14.82;4.72;;;;;;;;;;4965454;28;20127;-83
2021/04/26 06:32:32;;;;;;;8.23;5.18;;;;;;;;;;4968634;28;20116;-81
2021/04/26 06:35:27;;;;;;;12.95;5.15;;;;;;;;;;4968888;28;20018;-81
2021/04/26 06:38:17;;;;;;;12.48;5.25;;;;;;;;;;4963100;28;20050;-82
2021/04/26 06:41:03;;;;;;;10.15;4.85;;;;;;;;;;4966461;28;20022;-80
2021/04/26 06:43:48;;;;;;;12.50;5.00;;;;;;;;;;4960508;28;20022;-81
2021/04/26 06:46:33;;;;;;;9.00;4.95;;;;;;;;;;4969252;28;20025;-80
2021/04/26 06:49:20;;;;;;;10.30;5.20;;;;;;;;;;4967411;28;20078;-80
2021/04/26 06:52:05;;;;;;;9.65;4.60;;;;;;;;;;4970065;28;20080;-80
2021/04/26 06:54:50;;;;;;;12.70;5.03;;;;;;;;;;4967268;28;20038;-81
2021/04/26 06:57:36;;;;;;;13.68;5.78;;;;;;;;;;4964439;28;20030;-80
2021/04/26 07:00:21;;;;;;;28.40;16.83;;;;;;;;;;4958510;28;20105;-80
2021/04/26 07:03:07;;;;;;;22.48;13.98;;;;;;;;;;4966269;28;20026;-81
2021/04/26 07:05:52;;;;;;;10.07;5.00;;;;;;;;;;4969583;28;20044;-80
2021/04/26 07:08:37;;;;;;;10.52;4.90;;;;;;;;;;4963082;28;20060;-79
2021/04/26 07:11:22;;;;;;;11.30;4.95;;;;;;;;;;4964922;28;20042;-80
2021/04/26 07:14:08;;;;;;;10.13;4.28;;;;;;;;;;4965683;28;20060;-80
2021/04/26 07:16:53;;;;;;;11.57;5.32;;;;;;;;;;4975099;28;20416;-82
2021/04/26 07:19:38;;;;;;;10.27;4.72;;;;;;;;;;4964331;28;20042;-80
2021/04/26 07:22:23;;;;;;;10.68;5.30;;;;;;;;;;4961837;28;20200;-84
2021/04/26 07:25:09;;;;;;;8.57;5.00;;;;;;;;;;4965244;28;20030;-84
2021/04/26 07:27:55;;;;;;;12.70;4.60;;;;;;;;;;4963787;28;20452;-83
2021/04/26 07:30:40;;;;;;;15.73;4.60;;;;;;;;;;4969789;28;20026;-83
2021/04/26 07:33:26;;;;;;;10.10;5.28;;;;;;;;;;4970368;28;20048;-82
2021/04/26 07:36:12;;;;;;;12.93;5.50;;;;;;;;;;4966101;28;20112;-83
2021/04/26 07:38:57;;;;;;;11.10;5.35;;;;;;;;;;4970373;28;20022;-82
2021/04/26 07:41:42;;;;;;;9.40;4.60;;;;;;;;;;4967428;28;20054;-83
2021/04/26 07:44:28;;;;;;;12.82;4.63;;;;;;;;;;4962551;28;20120;-81
2021/04/26 07:47:13;;;;;;;11.52;5.43;;;;;;;;;;4964686;28;20505;-82
2021/04/26 07:49:59;;;;;;;8.38;4.75;;;;;;;;;;4964805;28;20082;-84
2021/04/26 07:52:44;;;;;;;17.95;5.72;;;;;;;;;;4967783;28;20030;-83
2021/04/26 07:55:29;;;;;;;15.30;9.52;;;;;;;;;;4961055;28;20023;-82
2021/04/26 07:58:15;;;;;;;11.65;5.78;;;;;;;;;;4963234;28;20053;-83
2021/04/26 08:01:00;;;;;;;7.78;4.63;;;;;;;;;;4964559;28;20019;-84
2021/04/26 08:03:45;;;;;;;8.30;4.07;;;;;;;;;;4966473;28;20030;-84
2021/04/26 08:06:32;;;;;;;9.25;4.47;;;;;;;;;;4961841;28;20073;-83
2021/04/26 08:09:17;;;;;;;8.88;4.68;;;;;;;;;;4961170;28;20033;-83
2021/04/26 08:12:02;;;;;;;9.23;4.80;;;;;;;;;;4966987;28;20030;-83
2021/04/26 08:14:48;;;;;;;7.82;4.03;;;;;;;;;;4968972;28;20077;-82
2021/04/26 08:17:33;;;;;;;8.13;4.88;;;;;;;;;;4959176;28;20030;-83
2021/04/26 08:20:18;;;;;;;10.48;5.30;;;;;;;;;;4965360;28;20018;-82
2021/04/26 08:23:04;;;;;;;10.35;4.43;;;;;;;;;;4964732;28;20053;-81
2021/04/26 08:25:49;;;;;;;8.57;5.07;;;;;;;;;;4969608;28;20485;-81
2021/04/26 08:28:34;;;;;;;8.73;4.90;;;;;;;;;;4971675;28;20054;-81
2021/04/26 08:31:20;;;;;;;10.18;4.50;;;;;;;;;;4960395;28;20500;-80
2021/04/26 08:34:05;;;;;;;9.32;4.57;;;;;;;;;;4964452;28;20030;-80
2021/04/26 08:36:50;;;;;;;9.75;5.25;;;;;;;;;;4962329;28;20042;-80
2021/04/26 08:39:35;;;;;;;10.57;5.13;;;;;;;;;;4965515;28;20038;-80
2021/04/26 08:42:24;;;;;;;8.90;4.72;;;;;;;;;;4961452;28;20785;-80
2021/04/26 08:45:12;;;;;;;7.75;4.93;;;;;;;;;;4970061;28;20022;-83
2021/04/26 08:47:58;;;;;;;9.68;4.57;;;;;;;;;;4966641;28;20058;-83
2021/04/26 08:50:43;;;;;;;11.80;5.10;;;;;;;;;;4964174;28;20436;-87
2021/04/26 08:53:29;;;;;;;9.40;4.40;;;;;;;;;;4959118;28;20034;-85
2021/04/26 08:56:16;;;;;;;9.52;4.60;;;;;;;;;;4970196;28;20045;-87
2021/04/26 08:59:05;;;;;;;10.65;4.78;;;;;;;;;;4963227;28;20034;-86
2021/04/26 09:02:00;;;;;;;12.47;5.63;;;;;;;;;;4966248;28;20027;-87
2021/04/26 09:04:48;;;;;;;9.93;4.32;;;;;;;;;;4966923;28;20253;-86
2021/04/26 09:07:34;;;;;;;9.50;4.60;;;;;;;;;;4967941;28;20029;-87
2021/04/26 09:10:38;;;;;;;9.45;4.57;;;;;;;;;;4965205;28;20056;-89
2021/04/26 09:13:39;;;;;;;10.95;5.10;;;;;;;;;;4966343;28;20081;-90
2021/04/26 09:19:55;;;;;;;11.18;4.20;;;;;;;;;;4982854;28;20049;-92
2021/04/26 09:22:57;;;;;;;14.68;9.60;;;;;;;;;;4979102;28;20105;-90
2021/04/26 09:25:45;;;;;;;9.25;5.15;;;;;;;;;;4979011;28;20023;-89
2021/04/26 09:28:31;;;;;;;9.60;4.65;;;;;;;;;;4975086;28;20026;-88
2021/04/26 09:31:16;;;;;;;8.57;4.47;;;;;;;;;;4969772;28;20503;-89
2021/04/26 09:37:43;;;;;;;7.82;4.40;;;;;;;;;;4916771;29;20028;-89
2021/04/26 09:40:34;;;;;;;11.40;4.80;;;;;;;;;;4927026;28;20106;-90
2021/04/26 09:43:26;;;;;;;10.05;4.65;;;;;;;;;;4985600;28;20041;-89
2021/04/26 09:46:14;;;;;;;10.57;4.60;;;;;;;;;;4972063;28;20039;-89
2021/04/26 09:49:17;;;;;;;10.73;4.75;;;;;;;;;;4976411;28;20388;-90
2021/04/26 09:52:22;;;;;;;11.13;5.60;;;;;;;;;;4974460;28;20062;-89
2021/04/26 09:55:28;;;;;;;9.73;4.32;;;;;;;;;;4968744;28;20034;-89
2021/04/26 09:58:14;;;;;;;8.48;4.05;;;;;;;;;;4969895;28;20479;-91
2021/04/26 10:00:59;;;;;;;9.10;4.97;;;;;;;;;;4971176;28;20646;-89
2021/04/26 10:04:12;;;;;;;10.57;5.05;;;;;;;;;;4973448;28;20019;-91
2021/04/26 10:07:09;;;;;;;12.05;4.70;;;;;;;;;;4969844;28;20042;-90
2021/04/26 10:09:54;;;;;;;9.50;4.70;;;;;;;;;;4967391;28;20030;-90
2021/04/26 10:12:40;;;;;;;15.43;9.27;;;;;;;;;;4965769;28;20478;-85
2021/04/26 10:15:28;;;;;;;14.18;5.32;;;;;;;;;;4961303;28;20047;-89
2021/04/26 10:18:14;;;;;;;11.63;5.47;;;;;;;;;;4960658;28;20035;-88
2021/04/26 10:21:00;;;;;;;14.60;7.88;;;;;;;;;;4952810;28;20026;-84
2021/04/26 10:23:49;;;;;;;14.98;5.53;;;;;;;;;;4955684;28;20061;-86
2021/04/26 10:26:45;;;;;;;9.93;5.53;;;;;;;;;;4956342;28;20026;-83
2021/04/26 10:29:31;;;;;;;10.50;5.70;;;;;;;;;;4956219;28;20714;-86
2021/04/26 10:32:16;;;;;;;9.13;5.82;;;;;;;;;;4953859;28;20023;-84
2021/04/26 10:35:01;;;;;;;13.15;5.63;;;;;;;;;;4944679;28;20045;-83
2021/04/26 10:37:50;;;;;;;9.73;4.75;;;;;;;;;;4954217;28;21090;-85
2021/04/26 10:40:36;;;;;;;7.63;4.70;;;;;;;;;;4952950;28;20034;-85
2021/04/26 10:43:28;;;;;;;8.77;4.22;;;;;;;;;;4953959;28;20089;-89
2021/04/26 10:46:13;;;;;;;9.50;4.97;;;;;;;;;;4942659;28;20228;-86
2021/04/26 10:49:08;;;;;;;9.75;4.65;;;;;;;;;;4952419;28;20034;-86
2021/04/26 10:51:53;;;;;;;11.75;5.18;;;;;;;;;;4952379;28;20031;-90
2021/04/26 10:54:41;;;;;;;10.18;4.88;;;;;;;;;;4946749;28;20159;-87
2021/04/26 10:57:48;;;;;;;11.23;4.97;;;;;;;;;;4960050;28;20049;-88
2021/04/26 11:00:36;;;;;;;10.95;4.57;;;;;;;;;;4961846;28;20033;-88
2021/04/26 11:03:21;;;;;;;11.05;4.80;;;;;;;;;;4963728;28;20061;-89
2021/04/26 11:06:07;;;;;;;11.50;5.28;;;;;;;;;;4975865;28;20027;-89
2021/04/26 11:09:06;;;;;;;8.68;4.55;;;;;;;;;;4951762;28;20042;-89
2021/04/26 11:12:02;;;;;;;9.52;4.78;;;;;;;;;;4969226;28;20034;-89
2021/04/26 11:14:47;;;;;;;15.30;5.45;;;;;;;;;;4957986;28;20078;-87
2021/04/26 11:17:32;;;;;;;8.60;4.75;;;;;;;;;;4963517;28;20062;-87
2021/04/26 11:20:23;;;;;;;10.07;5.20;;;;;;;;;;4947602;28;20022;-89
2021/04/26 11:23:28;;;;;;;13.25;4.82;;;;;;;;;;4964614;28;20026;-83
2021/04/26 11:26:15;;;;;;;11.18;5.43;;;;;;;;;;4964026;28;20033;-88
2021/04/26 11:29:00;;;;;;;11.57;5.60;;;;;;;;;;4964257;28;20030;-88
2021/04/26 11:31:49;;;;;;;9.23;4.60;;;;;;;;;;4968160;28;20137;-91
2021/04/26 11:34:46;;;;;;;10.65;4.97;;;;;;;;;;4965574;28;20078;-89
2021/04/26 11:37:36;;;;;;;11.07;4.95;;;;;;;;;;4962700;28;20115;-87
2021/04/26 11:40:22;;;;;;;9.00;5.00;;;;;;;;;;4964103;28;20031;-88
2021/04/26 11:43:08;;;;;;;9.15;5.75;;;;;;;;;;4979648;28;20069;-91
2021/04/26 11:45:54;;;;;;;10.10;5.47;;;;;;;;;;4962929;28;20501;-90
2021/04/26 11:48:39;;;;;;;7.57;4.90;;;;;;;;;;4952142;28;20062;-89
2021/04/26 11:51:34;;;;;;;13.32;5.60;;;;;;;;;;4960944;28;20049;-85
2021/04/26 11:54:23;;;;;;;9.45;5.13;;;;;;;;;;4968432;28;20045;-89
2021/04/26 11:57:16;;;;;;;8.02;4.30;;;;;;;;;;4974591;28;20521;-85
2021/04/26 12:00:03;;;;;;;8.18;4.55;;;;;;;;;;4947520;28;20075;-89
2021/04/26 12:02:49;;;;;;;11.73;4.20;;;;;;;;;;4960795;28;20029;-88
2021/04/26 12:05:35;;;;;;;11.35;4.78;;;;;;;;;;4959626;28;20041;-86
2021/04/26 12:08:20;;;;;;;8.82;4.40;;;;;;;;;;4949879;28;20438;-88
2021/04/26 12:11:15;;;;;;;9.07;4.50;;;;;;;;;;4962718;28;20030;-90
2021/04/26 12:14:10;;;;;;;8.02;4.55;;;;;;;;;;4963729;28;20635;-88
2021/04/26 12:17:15;;;;;;;8.38;4.13;;;;;;;;;;4947733;28;20113;-86
2021/04/26 12:20:07;;;;;;;8.93;4.57;;;;;;;;;;4949356;28;20039;-89
2021/04/26 12:22:53;;;;;;;9.73;4.40;;;;;;;;;;4960120;28;20077;-88
2021/04/26 12:25:40;;;;;;;9.60;4.50;;;;;;;;;;4966784;28;20027;-85
2021/04/26 12:28:40;;;;;;;11.43;4.88;;;;;;;;;;4962201;28;20027;-84
2021/04/26 12:31:25;;;;;;;6.78;4.00;;;;;;;;;;4957132;28;20041;-84
2021/04/26 12:34:11;;;;;;;18.15;12.85;;;;;;;;;;4957795;28;20027;-87
2021/04/26 12:36:56;;;;;;;13.88;5.53;;;;;;;;;;4954450;28;20027;-86
2021/04/26 12:39:41;;;;;;;10.23;4.53;;;;;;;;;;4955651;28;20062;-87
2021/04/26 12:42:28;;;;;;;10.20;4.93;;;;;;;;;;4952895;28;20385;-86
2021/04/26 12:45:15;;;;;;;9.20;4.97;;;;;;;;;;4947936;28;20114;-84
2021/04/26 12:48:05;;;;;;;8.00;3.95;;;;;;;;;;4949517;28;20034;-87
2021/04/26 12:50:51;;;;;;;9.18;3.90;;;;;;;;;;4954139;28;20101;-84
2021/04/26 12:53:37;;;;;;;6.15;4.05;;;;;;;;;;4955206;28;20034;-85
2021/04/26 12:56:22;;;;;;;9.80;4.93;;;;;;;;;;4959716;28;20045;-85
2021/04/26 12:59:07;;;;;;;8.80;4.28;;;;;;;;;;4953363;28;20397;-86
2021/04/26 13:02:02;;;;;;;9.57;4.60;;;;;;;;;;4959151;28;20493;-85
2021/04/26 13:04:48;;;;;;;8.30;4.20;;;;;;;;;;4953387;28;20564;-84
2021/04/26 13:07:33;;;;;;;6.05;3.45;;;;;;;;;;4958428;28;20066;-84
2021/04/26 13:10:19;;;;;;;14.90;4.88;;;;;;;;;;4954017;28;20043;-85
2021/04/26 13:13:04;;;;;;;11.48;4.95;;;;;;;;;;4958693;28;20130;-85
2021/04/26 13:15:50;;;;;;;7.40;3.33;;;;;;;;;;4961507;28;20038;-84
2021/04/26 13:18:42;;;;;;;8.15;3.53;;;;;;;;;;4950278;28;20623;-86
2021/04/26 13:21:35;;;;;;;8.75;3.90;;;;;;;;;;4959761;28;20031;-83
2021/04/26 13:24:24;;;;;;;11.05;4.50;;;;;;;;;;4956631;28;20552;-84
2021/04/26 13:27:09;;;;;;;8.48;4.03;;;;;;;;;;4954311;28;20588;-81
2021/04/26 13:29:55;;;;;;;12.43;4.18;;;;;;;;;;4962223;28;20133;-87
2021/04/26 13:32:40;;;;;;;7.68;3.80;;;;;;;;;;4971197;28;20019;-85
2021/04/26 13:35:26;;;;;;;9.18;4.65;;;;;;;;;;4972477;28;20008;-90
2021/04/26 13:41:47;;;;;;;14.18;4.38;;;;;;;;;;4942123;28;20034;-90
2021/04/26 13:45:21;;;;;;;10.05;3.45;;;;;;;;;;4986123;28;20346;-91
2021/04/26 13:51:34;;;;;;;7.90;3.80;;;;;;;;;;4981943;28;20021;-90
2021/04/26 13:54:20;;;;;;;7.53;3.58;;;;;;;;;;4980869;28;20015;-89
2021/04/26 13:57:06;;;;;;;6.60;3.50;;;;;;;;;;4987819;28;20050;-91
2021/04/26 13:59:56;;;;;;;6.45;3.72;;;;;;;;;;4983010;28;20362;-91
2021/04/26 14:02:45;;;;;;;9.43;3.08;;;;;;;;;;4979439;28;20086;-92
2021/04/26 14:05:33;;;;;;;5.68;3.00;;;;;;;;;;4987989;28;20058;-92
2021/04/26 14:08:18;;;;;;;6.90;3.72;;;;;;;;;;4979306;28;20014;-92
2021/04/26 14:11:04;;;;;;;7.05;3.90;;;;;;;;;;5002763;28;20054;-91
2021/04/26 14:13:58;;;;;;;11.07;4.10;;;;;;;;;;4989683;28;20035;-90
2021/04/26 14:16:45;;;;;;;42.08;33.83;;;;;;;;;;4984905;28;20270;-91
2021/04/26 14:19:33;;;;;;;8.85;4.70;;;;;;;;;;4981031;28;20034;-90
2021/04/26 14:22:18;;;;;;;7.75;3.45;;;;;;;;;;4977106;28;20040;-85
2021/04/26 14:25:05;;;;;;;8.30;3.65;;;;;;;;;;4982100;28;20038;-90
2021/04/26 14:27:50;;;;;;;7.18;3.67;;;;;;;;;;4984283;28;20285;-86
2021/04/26 14:30:35;;;;;;;9.77;4.70;;;;;;;;;;4973292;28;20031;-88
2021/04/26 14:33:20;;;;;;;10.90;4.05;;;;;;;;;;4982724;28;20022;-91
2021/04/26 14:36:06;;;;;;;6.57;4.22;;;;;;;;;;4976153;28;20436;-86
2021/04/26 14:38:52;;;;;;;8.85;4.30;;;;;;;;;;4958469;28;20085;-86
2021/04/26 14:41:37;;;;;;;9.13;4.00;;;;;;;;;;4971523;28;20026;-86
2021/04/26 14:44:23;;;;;;;10.82;3.58;;;;;;;;;;4976010;28;20023;-87
2021/04/26 14:47:08;;;;;;;6.63;3.80;;;;;;;;;;4970988;28;20027;-85
2021/04/26 14:49:59;;;;;;;8.68;3.28;;;;;;;;;;4965028;28;20748;-87
2021/04/26 14:52:44;;;;;;;6.40;2.88;;;;;;;;;;4976877;28;20022;-88
2021/04/26 14:55:29;;;;;;;7.90;3.30;;;;;;;;;;4980834;28;20034;-88
2021/04/26 14:58:14;;;;;;;8.15;3.60;;;;;;;;;;4975032;28;20086;-88
2021/04/26 15:01:00;;;;;;;7.18;3.30;;;;;;;;;;4980957;28;20042;-86
2021/04/26 15:03:45;;;;;;;6.03;3.75;;;;;;;;;;4980560;28;20163;-88
2021/04/26 15:06:30;;;;;;;10.70;4.50;;;;;;;;;;4980528;28;20027;-89
2021/04/26 15:09:15;;;;;;;9.35;3.55;;;;;;;;;;4982806;28;20042;-89
2021/04/26 15:12:01;;;;;;;10.80;4.65;;;;;;;;;;4984221;28;20050;-88
2021/04/26 15:14:46;;;;;;;10.20;3.97;;;;;;;;;;4962235;28;20043;-87
2021/04/26 15:17:32;;;;;;;7.40;3.30;;;;;;;;;;4960485;28;22489;-89
2021/04/26 15:20:17;;;;;;;10.57;3.72;;;;;;;;;;4966435;28;20015;-88
2021/04/26 15:23:03;;;;;;;8.88;3.67;;;;;;;;;;4951674;28;20018;-87
2021/04/26 15:25:48;;;;;;;8.60;3.30;;;;;;;;;;4952511;28;20031;-87
2021/04/26 15:28:34;;;;;;;4.18;3.05;;;;;;;;;;4962112;28;20034;-88
2021/04/26 15:31:23;;;;;;;5.65;3.05;;;;;;;;;;4963710;28;20486;-89
2021/04/26 15:34:08;;;;;;;11.20;3.28;;;;;;;;;;4969586;28;20038;-89
2021/04/26 15:37:03;;;;;;;6.43;2.97;;;;;;;;;;4968324;28;20038;-89
2021/04/26 15:39:50;;;;;;;6.65;3.53;;;;;;;;;;4958018;28;20031;-89
2021/04/26 15:42:36;;;;;;;7.25;3.78;;;;;;;;;;4962252;28;20163;-89
2021/04/26 15:45:21;;;;;;;7.82;4.20;;;;;;;;;;4946980;28;20022;-89
2021/04/26 15:48:17;;;;;;;;;;;;;;;;;;;;;
2021/04/26 15:51:18;;;;;;;9.10;4.00;;;;;;;;;;4935282;28;20039;-88
2021/04/26 15:54:07;;;;;;;7.97;4.13;;;;;;;;;;4965536;28;20382;-89
2021/04/26 15:56:52;;;;;;;10.68;4.47;;;;;;;;;;4963440;28;20031;-87
2021/04/26 15:59:40;;;;;;;8.52;4.40;;;;;;;;;;4959450;28;20485;-90
2021/04/26 16:02:25;;;;;;;8.45;4.35;;;;;;;;;;4965938;28;20934;-90
2021/04/26 16:08:44;;;;;;;10.77;4.57;;;;;;;;;;4969218;28;20078;-91
2021/04/26 16:11:36;;;;;;;9.68;4.32;;;;;;;;;;4961953;28;20383;-90
2021/04/26 16:17:56;;;;;;;8.27;4.70;;;;;;;;;;4951887;29;20686;-89
2021/04/26 16:20:41;;;;;;;;;;;;;;;;;;4928166;28;20031;-91
2021/04/26 16:23:46;;;;;;;7.30;4.13;;;;;;;;;;4966687;28;19914;-91
2021/04/26 16:26:34;;;;;;;8.57;4.28;;;;;;;;;;4959393;28;20524;-90
2021/04/26 16:29:21;;;;;;;10.75;5.20;;;;;;;;;;4959855;28;20142;-87
2021/04/26 16:32:09;;;;;;;12.20;5.18;;;;;;;;;;4958977;28;20035;-86
2021/04/26 16:34:57;;;;;;;10.10;6.13;;;;;;;;;;4963939;28;20161;-92
2021/04/26 16:37:45;;;;;;;7.57;4.80;;;;;;;;;;4961280;28;20041;-89
2021/04/26 16:40:37;;;;;;;10.70;4.95;;;;;;;;;;4961612;28;20023;-89
2021/04/26 16:50:36;;;;;;;10.00;4.95;;;;;;;;;;4969452;28;20111;-91
2021/04/26 16:56:54;;;;;;;8.20;5.20;;;;;;;;;;4907047;29;20038;-86
2021/04/26 16:59:41;;;;;;;7.90;4.93;;;;;;;;;;4959779;28;20027;-86
2021/04/26 17:02:29;;;;;;;11.77;4.68;;;;;;;;;;4962422;28;20022;-86
2021/04/26 17:05:14;;;;;;;10.23;5.22;;;;;;;;;;4958698;28;20501;-87
2021/04/26 17:08:00;;;;;;;7.45;4.82;;;;;;;;;;4955444;28;20397;-86
2021/04/26 17:10:46;;;;;;;12.57;5.70;;;;;;;;;;4963858;28;20442;-86